KUCY/UCY METAR and TAF weather

Enter ICAO airport designator
Station Type Date Time Source
KUCY METAR 2019/02/20 17:15 UTC NOAA

KUCY 201715Z AUTO 28005KT 3SM BR OVC004 07/06 A2982 RMK A01


Station Type Date Time Source
KUCY Decoded METAR 2019/02/20 17:15 UTC NOAA

Station name not available
Feb 20, 2019 - 12:15 PM EST / 2019.02.20 1715 UTC
Wind: from the W (280 degrees) at 6 MPH (5 KT):0
Visibility: 3 mile(s):0
Sky conditions: overcast
Weather: mist
Temperature: 44 F (7 C)
Dew Point: 42 F (6 C)
Relative Humidity: 93%
Pressure (altimeter): 29.82 in. Hg (1009 hPa)
ob: KUCY 201715Z AUTO 28005KT 3SM BR OVC004 07/06 A2982 RMK A01
cycle: 17

Station Type Date Time Source
KUCY TAF UTC NOAA

Error!


Example: see airport list